EKSP

Vojens Skrydstrup Airport

Vojens, Denmark
METAR EKSP 170320Z 15003KT 1500 R10/1500D R28/P2000N BR NSC 12/12 Q1017
Observed Flight Rules
Oct-17 @ 03:20 UTC (30 minutes ago) Instrument Flight Rules
Wind Visibility Clouds Conditions
150° at 3 knots 1,497 meters
  • Clear skies
  • Mist
Temperatures Readings
Current 12°C / 54°F
Dewpoint 12°C / 54°F
Humidity 100%
Altimeter 30.03" Hg
Pressure 1017 hPa
Elevation 40
METAR EKSP 170320Z 15003KT 1500 R10/1500D R28/P2000N BR NSC 12/12 Q1017
Observed Flight Rules
Oct-17 @ 03:20 UTC
(30 minutes ago)
LIFR
Wind Visibility
150° at 3 knots 1,497 meters
Clouds
  • Clear skies
Conditions
  • Mist
Temperature Dewpoint
12°C / 54°F 12°C / 54°F
Humidity Altimeter Pressure
100% 30.03" Hg 1017 hPa